Share

Bethelridge, KY (42516)

7:28 PM EDT on April 23, 2014 (GMT -0400)
HALLS BACKYARD WEATHER (KKYSCIEN1) Elev 1076 ft | 37.19 °N, 84.62 °W | Change Station

Current weather conditions updated 9 seconds ago

Clear
Clear
58.3 °F
Feels Like 58.3 °F
N
0.0
Wind Variable Wind from NW
Gusts 8.0 mph
Sunrise 6:54 AM
Sunset 8:21 PM
Moon Waning Crescent

Tomorrow is forecast to be Much Warmer than today. Rain developing late tomorrow night.

Pressure 30.04 in
Visibility 10.0 miles
Clouds Clear
Dew Point 34 °F
Humidity 39%
Rainfall 0.00 in
Snow Depth Not available.
UV 1 out of 16
Pollen 10.10 out of 12
Air Quality Not available.
Flu Activity Sporadic
METAR KSME 232315Z AUTO 01007KT 10SM CLR 15/00 A3004 RMK AO2

More Conditions Fewer Conditions

Pressure 30.04 in
Visibility 10.0 miles
Clouds Clear
Dew Point 34 °F
Humidity 39%
Rainfall 0.00 in
Snow Depth Not available.
UV 1 out of 16
Pollen 10.10 out of 12
Air Quality Not available.
Flu Activity Sporadic
METAR KSME 232315Z AUTO 01007KT 10SM CLR 15/00 A3004 RMK AO2

More Conditions Fewer Conditions

10-Day Weather Forecast

Almanac

Astronomy

Apr. 23, 2014 Rise Set
Actual Time 6:54 AM EDT 8:21 PM EDT
Civil Twilight 6:26 AM EDT 8:48 PM EDT
Nautical Twilight 5:53 AM EDT 9:21 PM EDT
Astronomical Twilight 5:19 AM EDT 9:56 PM EDT
Moon 3:17 AM EDT 2:36 PM EDT
Length of Visible Light 14h 22m
Length of Day
13h 27m
Tomorrow will be 2m 10s longer.
Waning Crescent, 32% of the Moon is Illuminated
Today
Waning Crescent
Apr 29
New
May 6
First Quarter
May 14
Full
May 21
Last Quarter

Today's Extremes

State Highs State Lows

Community

  • Nestled In
    Nestled In
  • Stunning Sunrise
    Stunning Sunrise
  • spring flowers
    spring flowers
  • Earth Day Spectrum Ove' Blue
    Earth Day Spectrum Ove' Blue
  • BARN B&W
    BARN B&W

WunderPhotos

Upload Photos

1,704,452 photos uploaded!

WunderBlogs® & News

Nearby

Snow Depth

Station Depth Elevation
No new snow has been reported.

Coastal Water Temperatures

Place Temperature
No Stations Reporting

Earthquake Activity

City Distance Mag. Time & Date
No recent earthquake activity has been reported nearby.
Minimum magnitude displayed is 2.5.

Nearby Weather Stations

Station Location Temp. Dew Point Humidity Wind Precip. Elev Updated Type
HALLS BACKYARD WEATHER, SCIENCE HILL, KY 58.3 °F 34 °F 39% NW  at  0.0 mph 0.00 in / hr 1076 ft 7:28 PM EDT Normal
RAWS SOMERSET KY, Ferguson, KY 61 °F 34 °F 36% NNW  at  8 mph 0.00 in / hr 920 ft 7:01 PM EDT MADIS
K. Bracketts Weather Station 39 N, Crab Orchard, KY 57.9 °F 41 °F 54% East  at  1.6 mph 0.00 in / hr 952 ft 7:28 PM EDT Rapid Fire
Balcony Bend, Jamestown, KY 62.4 °F 34 °F 35% NNE  at  4.0 mph 0.00 in / hr 817 ft 6:25 PM CDT Normal

Show More Stations Show Fewer Stations

What do you think?

We're not finished. Please let us know what you like, what you don't like, and what you are still missing.